createdAt,value
2023-03-06T00:02:08.004Z,8.90
2023-03-06T00:04:34.717Z,9.63
2023-03-06T00:07:01.433Z,9.77
2023-03-06T00:09:28.127Z,8.18
2023-03-06T00:11:54.918Z,8.75
2023-03-06T00:14:21.681Z,11.35
2023-03-06T00:16:54.966Z,10.90
2023-03-06T00:19:22.812Z,10.85
2023-03-06T00:21:49.801Z,11.05
2023-03-06T00:24:16.597Z,8.77
2023-03-06T00:26:43.361Z,10.73
2023-03-06T00:29:10.344Z,10.73
2023-03-06T00:31:37.344Z,10.32
2023-03-06T00:34:04.697Z,10.98
2023-03-06T00:36:31.444Z,10.50
2023-03-06T00:38:58.357Z,9.55
2023-03-06T00:41:25.095Z,10.48
2023-03-06T00:43:51.793Z,9.70
2023-03-06T00:46:18.665Z,9.05
2023-03-06T00:48:45.634Z,9.57
2023-03-06T00:51:14.036Z,10.52
2023-03-06T00:53:41.080Z,10.38
2023-03-06T00:56:09.247Z,9.70
2023-03-06T00:58:37.380Z,8.98
2023-03-06T01:01:04.786Z,8.50
2023-03-06T01:03:31.717Z,8.70
2023-03-06T01:05:58.571Z,9.80
2023-03-06T01:08:25.354Z,8.30
2023-03-06T01:10:52.179Z,10.55
2023-03-06T01:13:18.846Z,8.48
2023-03-06T01:15:45.589Z,9.25
2023-03-06T01:18:12.338Z,10.50
2023-03-06T01:20:39.324Z,8.73
2023-03-06T01:23:06.040Z,8.60
2023-03-06T01:25:32.891Z,12.63
2023-03-06T01:27:59.609Z,14.02
2023-03-06T01:30:26.343Z,11.90
2023-03-06T01:32:53.459Z,10.55
2023-03-06T01:35:20.397Z,8.65
2023-03-06T01:37:47.220Z,10.32
2023-03-06T01:40:14.513Z,9.25
2023-03-06T01:42:41.890Z,8.90
2023-03-06T01:45:31.787Z,8.88
2023-03-06T01:47:58.629Z,9.38
2023-03-06T01:50:25.559Z,9.15
2023-03-06T01:52:55.544Z,9.05
2023-03-06T01:55:30.992Z,9.93
2023-03-06T01:58:01.337Z,10.27
2023-03-06T02:00:29.685Z,9.45
2023-03-06T02:03:11.489Z,9.27
2023-03-06T02:05:40.487Z,9.88
2023-03-06T02:08:11.434Z,8.90
2023-03-06T02:10:58.116Z,7.40
2023-03-06T02:13:25.034Z,8.35
2023-03-06T02:15:52.020Z,8.13
2023-03-06T02:18:19.967Z,7.65
2023-03-06T02:20:53.009Z,8.40
2023-03-06T02:23:48.910Z,9.05
2023-03-06T02:28:43.438Z,8.63
2023-03-06T02:31:25.411Z,8.75
2023-03-06T02:34:14.079Z,9.57
2023-03-06T02:36:48.501Z,9.07
2023-03-06T02:39:16.068Z,8.95
2023-03-06T02:41:42.776Z,9.43
2023-03-06T02:44:09.654Z,8.40
2023-03-06T02:46:36.493Z,10.00
2023-03-06T02:49:03.262Z,9.88
2023-03-06T02:51:30.073Z,9.55
2023-03-06T02:53:56.942Z,8.60
2023-03-06T02:56:23.737Z,8.32
2023-03-06T02:58:50.558Z,8.40
2023-03-06T03:01:17.291Z,8.30
2023-03-06T03:03:44.218Z,9.30
2023-03-06T03:06:11.264Z,8.70
2023-03-06T03:08:38.324Z,8.93
2023-03-06T03:11:05.849Z,8.30
2023-03-06T03:13:39.435Z,9.55
2023-03-06T03:16:14.054Z,8.68
2023-03-06T03:18:42.191Z,8.93
2023-03-06T03:21:12.447Z,9.63
2023-03-06T03:23:39.363Z,9.02
2023-03-06T03:26:11.882Z,10.13
2023-03-06T03:28:42.207Z,8.85
2023-03-06T03:31:12.457Z,8.15
2023-03-06T03:33:40.340Z,8.90
2023-03-06T03:36:08.371Z,9.02
2023-03-06T03:38:39.246Z,9.32
2023-03-06T03:41:06.592Z,8.30
2023-03-06T03:43:33.856Z,8.90
2023-03-06T03:46:01.007Z,7.70
2023-03-06T03:48:28.530Z,8.48
2023-03-06T03:51:05.016Z,7.13
2023-03-06T03:53:32.763Z,7.00
2023-03-06T03:55:59.578Z,7.53
2023-03-06T03:58:27.151Z,7.38
2023-03-06T04:00:53.970Z,9.25
2023-03-06T04:03:20.892Z,7.00
2023-03-06T04:05:47.879Z,7.93
2023-03-06T04:08:16.358Z,7.38
2023-03-06T04:10:45.792Z,7.50
2023-03-06T04:13:14.845Z,6.22
2023-03-06T04:15:43.935Z,6.93
2023-03-06T04:18:11.572Z,8.55
2023-03-06T04:20:38.960Z,7.57
2023-03-06T04:23:05.784Z,7.22
2023-03-06T04:25:32.953Z,7.88
2023-03-06T04:28:02.076Z,7.85
2023-03-06T04:30:29.975Z,8.32
2023-03-06T04:32:57.848Z,7.55
2023-03-06T04:35:25.063Z,8.75
2023-03-06T04:37:58.491Z,7.93
2023-03-06T04:40:30.467Z,7.75
2023-03-06T04:42:59.194Z,6.78
2023-03-06T04:45:27.684Z,6.65
2023-03-06T04:47:55.208Z,6.90
2023-03-06T04:50:22.767Z,6.22
2023-03-06T04:52:49.801Z,5.68
2023-03-06T04:55:17.676Z,5.63
2023-03-06T04:57:46.340Z,5.07
2023-03-06T05:00:22.452Z,4.90
2023-03-06T05:02:50.087Z,7.07
2023-03-06T05:05:18.052Z,6.68
2023-03-06T05:07:44.974Z,7.05
2023-03-06T05:10:14.579Z,6.50
2023-03-06T05:12:41.481Z,5.50
2023-03-06T05:15:14.568Z,6.78
2023-03-06T05:17:41.548Z,7.28
2023-03-06T05:20:11.899Z,5.82
2023-03-06T05:22:38.718Z,5.80
2023-03-06T05:25:05.722Z,5.57
2023-03-06T05:27:33.508Z,5.57
2023-03-06T05:30:00.290Z,5.30
2023-03-06T05:32:27.049Z,6.55
2023-03-06T05:34:53.951Z,6.57
2023-03-06T05:37:20.804Z,7.30
2023-03-06T05:39:47.598Z,7.00
2023-03-06T05:42:14.422Z,6.50
2023-03-06T05:44:41.860Z,6.80
2023-03-06T05:47:09.218Z,6.57
2023-03-06T05:49:36.823Z,6.15
2023-03-06T05:52:04.792Z,5.28
2023-03-06T05:54:37.419Z,5.50
2023-03-06T05:57:05.664Z,5.25
2023-03-06T05:59:33.255Z,5.00
2023-03-06T06:02:01.277Z,4.25
2023-03-06T06:04:28.633Z,4.20
2023-03-06T06:07:00.141Z,4.07
2023-03-06T06:09:27.869Z,4.05
2023-03-06T06:11:59.997Z,4.18
2023-03-06T06:14:27.248Z,5.20
2023-03-06T06:16:54.865Z,4.38
2023-03-06T06:19:22.302Z,4.93
2023-03-06T06:21:54.193Z,5.50
2023-03-06T06:24:23.858Z,4.82
2023-03-06T06:26:55.490Z,5.38
2023-03-06T06:29:23.242Z,4.78
2023-03-06T06:31:51.132Z,4.65
2023-03-06T06:34:18.582Z,3.83
2023-03-06T06:36:45.572Z,4.00
2023-03-06T06:39:15.290Z,4.00
2023-03-06T06:41:59.441Z,3.83
2023-03-06T06:44:28.873Z,3.17
2023-03-06T06:49:42.325Z,3.38
2023-03-06T06:52:09.136Z,3.35
2023-03-06T06:54:35.981Z,4.47
2023-03-06T06:57:02.696Z,3.67
2023-03-06T06:59:29.495Z,4.07
2023-03-06T07:01:56.283Z,4.00
2023-03-06T07:04:23.194Z,4.13
2023-03-06T07:06:49.913Z,4.00
2023-03-06T07:09:16.710Z,3.95
2023-03-06T07:11:43.652Z,4.15
2023-03-06T07:14:10.607Z,3.75
2023-03-06T07:16:37.405Z,4.47
2023-03-06T07:19:04.512Z,3.90
2023-03-06T07:21:31.380Z,4.22
2023-03-06T07:23:58.214Z,4.18
2023-03-06T07:26:26.753Z,3.72
2023-03-06T07:28:54.425Z,4.05
2023-03-06T07:31:24.693Z,4.18
2023-03-06T07:33:52.516Z,3.70
2023-03-06T07:36:19.985Z,4.07
2023-03-06T07:38:46.908Z,5.32
2023-03-06T07:41:15.459Z,5.07
2023-03-06T07:43:43.831Z,4.60
2023-03-06T07:46:12.950Z,4.20
2023-03-06T07:48:40.718Z,4.70
2023-03-06T07:51:13.428Z,4.72
2023-03-06T07:53:40.357Z,5.95
2023-03-06T07:56:09.180Z,5.90
2023-03-06T07:58:41.601Z,5.32
2023-03-06T08:01:14.121Z,5.35
2023-03-06T08:03:41.226Z,5.65
2023-03-06T08:06:16.933Z,5.13
2023-03-06T08:08:46.331Z,4.25
2023-03-06T08:11:16.642Z,5.18
2023-03-06T08:13:43.930Z,4.90
2023-03-06T08:16:11.702Z,4.28
2023-03-06T08:18:39.912Z,3.72
2023-03-06T08:21:09.933Z,3.38
2023-03-06T08:23:36.852Z,3.28
2023-03-06T08:26:06.937Z,3.72
2023-03-06T08:28:34.664Z,3.55
2023-03-06T08:31:30.996Z,3.15
2023-03-06T08:34:01.269Z,3.60
2023-03-06T08:36:28.687Z,3.08
2023-03-06T08:38:55.545Z,3.15
2023-03-06T08:41:22.964Z,2.90
2023-03-06T08:43:50.483Z,3.60
2023-03-06T08:46:18.922Z,3.88
2023-03-06T08:48:47.846Z,3.50
2023-03-06T08:51:15.098Z,3.42
2023-03-06T08:53:43.982Z,2.95
2023-03-06T08:56:18.449Z,3.70
2023-03-06T08:58:45.702Z,3.80
2023-03-06T09:01:18.337Z,3.97
2023-03-06T09:03:46.187Z,3.20
2023-03-06T09:06:13.780Z,3.38
2023-03-06T09:08:44.683Z,3.83
2023-03-06T09:11:14.573Z,4.20
2023-03-06T09:13:42.919Z,4.40
2023-03-06T09:16:11.630Z,3.55
2023-03-06T09:18:38.531Z,3.33
2023-03-06T09:21:06.136Z,3.70
2023-03-06T09:23:33.559Z,3.58
2023-03-06T09:26:01.045Z,3.95
2023-03-06T09:28:27.835Z,4.00
2023-03-06T09:30:54.726Z,4.30
2023-03-06T09:33:21.764Z,4.22
2023-03-06T09:35:54.513Z,3.70
2023-03-06T09:38:23.913Z,4.25
2023-03-06T09:41:15.011Z,3.55
2023-03-06T09:43:48.251Z,3.95
2023-03-06T09:46:36.724Z,4.53
2023-03-06T09:49:38.891Z,3.60
2023-03-06T09:52:31.582Z,3.97
2023-03-06T09:55:10.407Z,3.63
2023-03-06T09:58:17.819Z,5.30
2023-03-06T10:00:58.894Z,4.38
2023-03-06T10:04:02.713Z,3.58
2023-03-06T10:06:50.366Z,3.95
2023-03-06T10:09:48.476Z,4.32
2023-03-06T10:12:24.751Z,4.10
2023-03-06T10:15:06.885Z,4.68
2023-03-06T10:17:41.153Z,7.32
2023-03-06T10:20:42.159Z,6.50
2023-03-06T10:23:25.510Z,7.00
2023-03-06T10:26:26.534Z,7.28
2023-03-06T10:29:11.552Z,5.90
2023-03-06T10:31:49.652Z,6.65
2023-03-06T10:34:23.357Z,6.10
2023-03-06T10:36:50.907Z,5.53
2023-03-06T10:39:20.657Z,5.38
2023-03-06T10:41:48.744Z,4.50
2023-03-06T10:44:15.447Z,4.55
2023-03-06T10:46:45.202Z,5.78
2023-03-06T10:49:15.029Z,5.45
2023-03-06T10:51:59.915Z,6.35
2023-03-06T10:54:28.615Z,4.90
2023-03-06T10:56:55.951Z,5.82
2023-03-06T10:59:25.574Z,6.22
2023-03-06T11:01:55.853Z,5.15
2023-03-06T11:04:30.678Z,6.60
2023-03-06T11:07:16.279Z,5.07
2023-03-06T11:10:04.443Z,6.18
2023-03-06T11:12:36.666Z,8.63
2023-03-06T11:15:17.360Z,7.40
2023-03-06T11:17:50.147Z,6.38
2023-03-06T11:20:52.071Z,6.50
2023-03-06T11:23:52.272Z,7.10
2023-03-06T11:26:34.178Z,6.35
2023-03-06T11:29:24.953Z,7.68
2023-03-06T11:31:55.095Z,9.18
2023-03-06T11:34:33.992Z,8.35
2023-03-06T11:37:06.596Z,7.90
2023-03-06T11:39:43.864Z,6.97
2023-03-06T11:44:49.417Z,5.28
2023-03-06T11:47:24.100Z,5.18
2023-03-06T11:50:02.814Z,5.05
2023-03-06T11:52:45.381Z,4.85
2023-03-06T11:55:20.862Z,4.68
2023-03-06T11:58:12.028Z,4.82
2023-03-06T12:00:47.758Z,4.05
2023-03-06T12:03:26.742Z,4.32
2023-03-06T12:06:25.903Z,4.10
2023-03-06T12:09:37.490Z,5.00
2023-03-06T12:12:10.757Z,3.78
2023-03-06T12:14:55.852Z,4.32
2023-03-06T12:17:22.590Z,4.28
2023-03-06T12:19:58.897Z,4.28
2023-03-06T12:22:30.154Z,4.68
2023-03-06T12:25:07.988Z,6.22
2023-03-06T12:27:59.634Z,5.80
2023-03-06T12:30:57.043Z,6.38
2023-03-06T12:33:33.146Z,5.88
2023-03-06T12:36:17.127Z,5.00
2023-03-06T12:39:14.667Z,5.45
2023-03-06T12:42:26.008Z,5.43
2023-03-06T12:45:06.783Z,5.47
2023-03-06T12:47:41.067Z,4.80
2023-03-06T12:50:23.304Z,4.15
2023-03-06T12:52:53.237Z,4.68
2023-03-06T12:55:24.974Z,4.05
2023-03-06T12:57:52.853Z,3.88
2023-03-06T13:00:35.317Z,3.92
2023-03-06T13:03:11.612Z,4.05
2023-03-06T13:05:50.295Z,4.10
2023-03-06T13:08:38.763Z,3.45
2023-03-06T13:11:39.678Z,4.18
2023-03-06T13:14:42.327Z,3.50
2023-03-06T13:17:20.939Z,4.03
2023-03-06T13:19:48.613Z,3.70
2023-03-06T13:22:27.920Z,3.88
2023-03-06T13:25:19.620Z,4.40
2023-03-06T13:27:53.526Z,3.83
2023-03-06T13:30:45.610Z,3.50
2023-03-06T13:33:44.487Z,4.10
2023-03-06T13:36:34.438Z,3.55
2023-03-06T13:39:02.180Z,7.70
2023-03-06T13:41:31.799Z,3.97
2023-03-06T13:44:23.249Z,4.15
2023-03-06T13:46:59.884Z,4.07
2023-03-06T13:49:28.624Z,3.83
2023-03-06T13:52:10.808Z,3.10
2023-03-06T13:54:53.273Z,4.18
2023-03-06T13:57:47.384Z,4.10
2023-03-06T14:00:17.641Z,5.53
2023-03-06T14:03:06.916Z,4.72
2023-03-06T14:05:50.846Z,5.88
2023-03-06T14:08:21.714Z,4.80
2023-03-06T14:11:00.748Z,4.50
2023-03-06T14:13:45.234Z,5.45
2023-03-06T14:16:27.851Z,4.85
2023-03-06T14:18:58.573Z,5.18
2023-03-06T14:21:39.723Z,4.50
2023-03-06T14:24:06.634Z,5.53
2023-03-06T14:26:47.202Z,6.88
2023-03-06T14:29:26.180Z,6.30
2023-03-06T14:31:58.986Z,5.72
2023-03-06T14:34:28.680Z,5.28
2023-03-06T14:37:00.756Z,5.13
2023-03-06T14:39:42.232Z,5.28
2023-03-06T14:42:16.757Z,5.10
2023-03-06T14:44:44.510Z,5.28
2023-03-06T14:47:22.159Z,4.55
2023-03-06T14:50:28.045Z,4.65
2023-03-06T14:52:59.359Z,5.25
2023-03-06T14:55:28.190Z,4.90
2023-03-06T14:58:07.935Z,4.32
2023-03-06T15:00:41.682Z,4.40
2023-03-06T15:03:17.812Z,4.70
2023-03-06T15:05:46.894Z,7.13
2023-03-06T15:08:20.498Z,6.18
2023-03-06T15:11:02.490Z,6.00
2023-03-06T15:13:32.580Z,5.88
2023-03-06T15:16:04.577Z,6.32
2023-03-06T15:18:42.745Z,5.90
2023-03-06T15:21:13.567Z,6.10
2023-03-06T15:23:45.731Z,6.18
2023-03-06T15:26:18.328Z,6.38
2023-03-06T15:28:47.530Z,6.32
2023-03-06T15:31:30.984Z,6.38
2023-03-06T15:34:02.225Z,6.32
2023-03-06T15:36:31.897Z,5.53
2023-03-06T15:39:00.833Z,5.28
2023-03-06T15:41:36.390Z,5.28
2023-03-06T15:44:11.540Z,4.90
2023-03-06T15:46:38.652Z,5.13
2023-03-06T15:49:05.449Z,5.13
2023-03-06T15:51:33.420Z,5.50
2023-03-06T15:54:11.273Z,6.30
2023-03-06T15:56:42.111Z,5.57
2023-03-06T15:59:20.108Z,6.38
2023-03-06T16:01:47.443Z,5.90
2023-03-06T16:04:17.068Z,6.03
2023-03-06T16:06:47.712Z,4.80
2023-03-06T16:09:14.739Z,5.18
2023-03-06T16:11:44.958Z,6.60
2023-03-06T16:14:20.174Z,37.20
2023-03-06T16:16:48.147Z,11.80
2023-03-06T16:19:25.923Z,6.22
2023-03-06T16:21:54.718Z,5.55
2023-03-06T16:24:21.988Z,5.68
2023-03-06T16:26:51.115Z,5.50
2023-03-06T16:29:22.971Z,5.93
2023-03-06T16:31:50.278Z,5.85
2023-03-06T16:34:19.874Z,6.53
2023-03-06T16:36:48.581Z,6.70
2023-03-06T16:39:17.531Z,8.82
2023-03-06T16:41:45.996Z,11.18
2023-03-06T16:44:13.710Z,12.57
2023-03-06T16:46:45.958Z,12.52
2023-03-06T16:49:16.929Z,10.55
2023-03-06T16:51:44.064Z,12.55
2023-03-06T16:54:11.446Z,14.07
2023-03-06T16:56:38.237Z,10.95
2023-03-06T16:59:05.311Z,9.82
2023-03-06T17:01:32.287Z,11.98
2023-03-06T17:04:08.669Z,13.00
2023-03-06T17:06:35.644Z,13.57
2023-03-06T17:09:02.553Z,14.18
2023-03-06T17:11:29.738Z,15.38
2023-03-06T17:13:56.535Z,27.38
2023-03-06T17:16:23.411Z,25.25
2023-03-06T17:18:50.796Z,18.45
2023-03-06T17:21:17.853Z,19.95
2023-03-06T17:23:44.822Z,17.45
2023-03-06T17:26:18.826Z,13.82
2023-03-06T17:28:46.457Z,10.07
2023-03-06T17:31:16.918Z,10.57
2023-03-06T17:33:44.093Z,10.23
2023-03-06T17:36:11.666Z,8.50
2023-03-06T17:38:38.656Z,8.02
2023-03-06T17:41:06.965Z,7.43
2023-03-06T17:43:34.220Z,8.77
2023-03-06T17:46:12.416Z,14.73
2023-03-06T17:48:40.334Z,17.75
2023-03-06T17:51:07.530Z,16.75
2023-03-06T17:53:34.514Z,20.20
2023-03-06T17:56:06.674Z,19.02
2023-03-06T17:58:34.275Z,18.60
2023-03-06T18:01:01.489Z,22.85
2023-03-06T18:03:28.491Z,23.55
2023-03-06T18:06:03.974Z,14.45
2023-03-06T18:08:32.282Z,17.65
2023-03-06T18:11:01.324Z,16.98
2023-03-06T18:13:28.377Z,14.52
2023-03-06T18:15:55.437Z,15.43
2023-03-06T18:18:23.618Z,13.82
2023-03-06T18:20:50.504Z,13.90
2023-03-06T18:23:17.674Z,21.45
2023-03-06T18:25:44.980Z,19.25
2023-03-06T18:28:12.394Z,22.23
2023-03-06T18:30:43.818Z,27.52
2023-03-06T18:33:10.970Z,21.70
2023-03-06T18:35:38.118Z,28.10
2023-03-06T18:38:05.107Z,26.33
2023-03-06T18:40:32.474Z,23.27
2023-03-06T18:42:59.453Z,25.92
2023-03-06T18:45:26.603Z,27.10
2023-03-06T18:47:54.928Z,24.30
2023-03-06T18:50:21.716Z,19.58
2023-03-06T18:52:48.609Z,21.10
2023-03-06T18:55:15.504Z,22.52
2023-03-06T18:57:42.451Z,18.38
2023-03-06T19:00:09.921Z,14.45
2023-03-06T19:02:36.675Z,14.13
2023-03-06T19:05:03.888Z,14.05
2023-03-06T19:07:30.704Z,13.38
2023-03-06T19:09:57.679Z,17.90
2023-03-06T19:12:24.619Z,16.05
2023-03-06T19:14:51.615Z,15.18
2023-03-06T19:17:18.451Z,14.90
2023-03-06T19:19:45.756Z,13.45
2023-03-06T19:22:13.013Z,13.75
2023-03-06T19:24:40.310Z,13.57
2023-03-06T19:27:07.177Z,14.77
2023-03-06T19:29:34.059Z,14.73
2023-03-06T19:32:01.513Z,16.45
2023-03-06T19:34:28.863Z,15.50
2023-03-06T19:36:55.869Z,15.00
2023-03-06T19:39:24.873Z,15.70
2023-03-06T19:41:52.507Z,14.65
2023-03-06T19:44:19.958Z,11.23
2023-03-06T19:46:47.179Z,11.15
2023-03-06T19:49:18.292Z,9.60
2023-03-06T19:51:45.943Z,11.48
2023-03-06T19:54:14.179Z,10.75
2023-03-06T19:56:41.519Z,12.40
2023-03-06T19:59:09.097Z,19.27
2023-03-06T20:01:36.526Z,18.55
2023-03-06T20:04:04.364Z,24.67
2023-03-06T20:06:39.481Z,17.08
2023-03-06T20:09:09.594Z,18.48
2023-03-06T20:11:37.219Z,18.33
2023-03-06T20:14:06.825Z,23.95
2023-03-06T20:16:34.858Z,23.33
2023-03-06T20:19:03.606Z,19.05
2023-03-06T20:21:35.985Z,16.08
2023-03-06T20:24:04.801Z,16.38
2023-03-06T20:26:34.524Z,15.70
2023-03-06T20:29:02.335Z,15.13
2023-03-06T20:31:30.626Z,20.08
2023-03-06T20:33:59.594Z,21.88
2023-03-06T20:36:36.252Z,20.73
2023-03-06T20:39:12.355Z,14.57
2023-03-06T20:41:39.749Z,11.85
2023-03-06T20:44:08.784Z,11.88
2023-03-06T20:46:36.880Z,9.75
2023-03-06T20:49:05.003Z,9.38
2023-03-06T20:51:36.261Z,8.75
2023-03-06T20:54:03.785Z,7.88
2023-03-06T20:56:33.330Z,8.32
2023-03-06T20:59:01.459Z,9.38
2023-03-06T21:01:35.339Z,10.70
2023-03-06T21:04:04.658Z,9.15
2023-03-06T21:06:32.127Z,11.98
2023-03-06T21:09:00.545Z,13.20
2023-03-06T21:11:29.210Z,13.23
2023-03-06T21:13:57.345Z,12.32
2023-03-06T21:16:26.264Z,9.68
2023-03-06T21:18:59.108Z,8.70
2023-03-06T21:21:33.180Z,9.25
2023-03-06T21:24:01.370Z,8.88
2023-03-06T21:26:30.528Z,11.25
2023-03-06T21:29:01.140Z,10.15
2023-03-06T21:31:29.805Z,9.27
2023-03-06T21:33:59.176Z,8.70
2023-03-06T21:36:30.161Z,8.85
2023-03-06T21:38:57.945Z,10.60
2023-03-06T21:41:28.674Z,9.43
2023-03-06T21:43:58.561Z,11.63
2023-03-06T21:46:27.467Z,12.38
2023-03-06T21:48:55.766Z,12.68
2023-03-06T21:51:23.852Z,11.15
2023-03-06T21:53:53.004Z,10.73
2023-03-06T21:56:24.460Z,9.60
2023-03-06T21:58:52.021Z,10.23
2023-03-06T22:01:22.238Z,12.25
2023-03-06T22:03:50.800Z,9.77
2023-03-06T22:06:21.153Z,9.25
2023-03-06T22:08:48.495Z,9.18
2023-03-06T22:11:17.835Z,8.25
2023-03-06T22:13:46.146Z,9.15
2023-03-06T22:16:13.338Z,8.90
2023-03-06T22:18:43.864Z,8.52
2023-03-06T22:21:13.057Z,8.73
2023-03-06T22:23:43.388Z,8.98
2023-03-06T22:26:13.707Z,8.38
2023-03-06T22:28:41.981Z,8.70
2023-03-06T22:31:13.136Z,8.18
2023-03-06T22:33:40.814Z,9.32
2023-03-06T22:36:10.803Z,10.07
2023-03-06T22:38:40.202Z,10.52
2023-03-06T22:41:08.442Z,10.15
2023-03-06T22:43:36.532Z,8.90
2023-03-06T22:46:06.251Z,9.57
2023-03-06T22:48:33.482Z,9.27
2023-03-06T22:51:09.559Z,9.43
2023-03-06T22:53:37.278Z,8.65
2023-03-06T22:56:06.526Z,9.25
2023-03-06T22:58:37.212Z,8.30
2023-03-06T23:01:25.356Z,10.00
2023-03-06T23:03:54.996Z,9.18
2023-03-06T23:06:43.281Z,7.90
2023-03-06T23:09:20.671Z,7.95
2023-03-06T23:12:06.054Z,7.63
2023-03-06T23:14:51.671Z,9.50
2023-03-06T23:17:37.130Z,7.20
2023-03-06T23:20:23.115Z,7.97
2023-03-06T23:23:08.423Z,7.75
2023-03-06T23:25:41.520Z,7.22
2023-03-06T23:28:08.500Z,7.22
2023-03-06T23:30:35.382Z,8.15
2023-03-06T23:33:02.417Z,10.00
2023-03-06T23:35:29.231Z,12.48
2023-03-06T23:37:56.432Z,10.48
2023-03-06T23:40:23.267Z,8.23
2023-03-06T23:42:50.144Z,7.40
2023-03-06T23:45:17.133Z,7.53
2023-03-06T23:47:44.121Z,7.25
2023-03-06T23:50:11.956Z,8.48
2023-03-06T23:52:38.855Z,7.80
2023-03-06T23:55:07.288Z,6.63
2023-03-06T23:57:34.777Z,6.70
